Time;durP1;ratioP1;P1;durP2;ratioP2;P2;SDS_P1;SDS_P2;PMS_P1;PMS_P2;Temp;Humidity;BMP_temperature;BMP_pressure;BME280_temperature;BME280_humidity;BME280_pressure;Samples;Min_cycle;Max_cycle;Signal;HPM_P1;HPM_P2
2023/02/18 00:01:00;;;;;;;;;;;;;;;20.42;34.72;96494.44;10412163;28;1990;-47
2023/02/18 00:06:00;;;;;;;;;;;;;;;20.40;34.58;96486.81;10434469;28;2749;-50
2023/02/18 00:11:00;;;;;;;;;;;;;;;20.38;34.45;96488.88;10430212;28;2331;-51
2023/02/18 00:16:04;;;;;;;;;;;;;;;20.37;34.57;96482.03;10424586;28;2634;-47
2023/02/18 00:21:05;;;;;;;;;;;;;;;20.35;34.44;96483.34;10436756;28;1951;-48
2023/02/18 00:26:06;;;;;;;;;;;;;;;20.33;34.55;96473.06;10414938;28;1942;-52
2023/02/18 00:31:07;;;;;;;;;;;;;;;20.32;34.59;96471.47;10420107;28;2693;-50
2023/02/18 00:36:08;;;;;;;;;;;;;;;20.31;34.45;96467.25;10423954;28;2611;-48
2023/02/18 00:41:08;;;;;;;;;;;;;;;20.29;34.52;96469.34;10420966;28;2073;-49
2023/02/18 00:46:09;;;;;;;;;;;;;;;20.27;34.43;96466.19;10428273;28;2072;-50
2023/02/18 00:51:09;;;;;;;;;;;;;;;20.25;34.57;96463.81;10426210;28;2262;-49
2023/02/18 00:56:09;;;;;;;;;;;;;;;20.24;34.56;96466.69;10414287;28;2619;-49
2023/02/18 01:01:10;;;;;;;;;;;;;;;20.23;34.31;96467.75;10428921;28;2112;-51
2023/02/18 01:06:10;;;;;;;;;;;;;;;20.20;34.58;96458.50;10415634;28;2391;-53
2023/02/18 01:11:10;;;;;;;;;;;;;;;20.20;34.21;96461.13;10430286;28;1958;-51
2023/02/18 01:16:11;;;;;;;;;;;;;;;20.18;34.37;96463.19;10433722;28;2685;-51
2023/02/18 01:21:11;;;;;;;;;;;;;;;20.17;34.26;96458.19;10424649;28;1977;-53
2023/02/18 01:26:11;;;;;;;;;;;;;;;20.16;34.11;96461.84;10417962;28;2340;-51
2023/02/18 01:31:13;;;;;;;;;;;;;;;20.14;34.10;96448.97;10421684;28;2677;-50
2023/02/18 01:36:13;;;;;;;;;;;;;;;20.13;34.10;96457.13;10421703;28;2343;-51
2023/02/18 01:41:13;;;;;;;;;;;;;;;20.11;34.21;96446.81;10413984;28;2567;-51
2023/02/18 01:46:15;;;;;;;;;;;;;;;20.09;34.36;96454.19;10420008;28;2707;-51
2023/02/18 01:51:18;;;;;;;;;;;;;;;20.09;34.30;96445.50;10413735;28;2549;-49
2023/02/18 01:56:21;;;;;;;;;;;;;;;20.08;34.30;96443.91;10419958;28;2405;-52
2023/02/18 02:01:22;;;;;;;;;;;;;;;20.06;34.39;96446.00;10422206;28;2010;-51
2023/02/18 02:06:22;;;;;;;;;;;;;;;20.04;34.39;96441.00;10414480;28;1966;-49
2023/02/18 02:11:51;;;;;;;;;;;;;;;20.04;34.06;96440.19;10435904;28;2041;-53
2023/02/18 02:17:12;;;;;;;;;;;;;;;20.00;34.14;96439.91;10416766;28;2224;-51
2023/02/18 02:22:31;;;;;;;;;;;;;;;20.00;34.07;96418.88;10425036;28;2105;-52
2023/02/18 02:27:36;;;;;;;;;;;;;;;19.99;34.27;96414.63;10435276;28;2641;-52
2023/02/18 02:32:55;;;;;;;;;;;;;;;19.97;34.24;96421.22;10427117;28;2549;-52
2023/02/18 02:38:14;;;;;;;;;;;;;;;19.96;34.11;96420.41;10429392;28;2596;-52
2023/02/18 02:43:26;;;;;;;;;;;;;;;19.94;34.13;96421.72;10427917;28;2686;-48
2023/02/18 02:48:35;;;;;;;;;;;;;;;19.92;34.14;96413.28;10415789;28;2566;-50
2023/02/18 02:53:36;;;;;;;;;;;;;;;19.91;33.97;96416.94;10435099;28;1906;-48
2023/02/18 02:58:37;;;;;;;;;;;;;;;19.89;33.92;96400.63;10421953;28;1945;-52
2023/02/18 03:03:55;;;;;;;;;;;;;;;19.89;33.88;96400.63;10424199;28;2589;-51
2023/02/18 03:08:59;;;;;;;;;;;;;;;19.88;34.10;96396.41;10433064;28;2415;-52
2023/02/18 03:14:03;;;;;;;;;;;;;;;19.86;33.98;96401.94;10409697;28;2316;-53
2023/02/18 03:19:11;;;;;;;;;;;;;;;19.85;33.83;96400.34;10423836;28;2373;-50
2023/02/18 03:24:17;;;;;;;;;;;;;;;19.83;34.03;96402.44;10427801;28;2341;-52
2023/02/18 03:29:17;;;;;;;;;;;;;;;19.82;33.86;96405.31;10426448;28;2608;-51
2023/02/18 03:34:19;;;;;;;;;;;;;;;19.81;33.99;96406.34;10425516;28;1967;-51
2023/02/18 03:39:20;;;;;;;;;;;;;;;19.81;34.01;96408.97;10415741;28;2622;-53
2023/02/18 03:44:20;;;;;;;;;;;;;;;19.79;34.00;96382.13;10429519;28;1970;-52
2023/02/18 03:49:20;;;;;;;;;;;;;;;19.76;33.92;96390.56;10422667;28;1954;-53
2023/02/18 03:54:21;;;;;;;;;;;;;;;19.76;33.95;96391.34;10430655;28;2690;-48
2023/02/18 03:59:21;;;;;;;;;;;;;;;19.75;33.83;96386.31;10428951;28;2306;-52
2023/02/18 04:04:21;;;;;;;;;;;;;;;19.74;34.03;96390.00;10425583;28;1959;-50
2023/02/18 04:09:21;;;;;;;;;;;;;;;19.72;33.92;96390.25;10429578;28;1946;-49
2023/02/18 04:14:22;;;;;;;;;;;;;;;19.71;34.05;96390.50;10419866;28;2035;-55
2023/02/18 04:19:22;;;;;;;;;;;;;;;19.71;34.08;96393.13;10424405;28;2005;-54
2023/02/18 04:24:22;;;;;;;;;;;;;;;19.70;34.04;96388.94;10420959;28;2666;-51
2023/02/18 04:29:22;;;;;;;;;;;;;;;19.68;33.96;96381.28;10425027;28;1958;-52
2023/02/18 04:34:23;;;;;;;;;;;;;;;19.68;34.06;96388.38;10429252;28;2288;-49
2023/02/18 04:39:23;;;;;;;;;;;;;;;19.67;34.01;96397.31;10424123;28;2688;-55
2023/02/18 04:44:23;;;;;;;;;;;;;;;19.65;34.11;96391.50;10425436;28;2675;-53
2023/02/18 04:49:23;;;;;;;;;;;;;;;19.65;34.14;96396.78;10432646;28;2009;-53
2023/02/18 04:54:24;;;;;;;;;;;;;;;19.62;34.14;96395.44;10431989;28;2593;-51
2023/02/18 04:59:24;;;;;;;;;;;;;;;19.62;34.10;96405.19;10425942;28;2586;-51
2023/02/18 05:04:24;;;;;;;;;;;;;;;19.62;34.14;96410.44;10426280;28;2021;-52
2023/02/18 05:09:25;;;;;;;;;;;;;;;19.61;34.00;96404.38;10423163;28;2006;-49
2023/02/18 05:14:25;;;;;;;;;;;;;;;19.64;34.12;96385.44;10418394;28;1961;-51
2023/02/18 05:19:25;;;;;;;;;;;;;;;19.68;33.86;96385.75;10426843;28;2601;-48
2023/02/18 05:24:25;;;;;;;;;;;;;;;19.72;33.92;96389.47;10425238;28;1977;-52
2023/02/18 05:29:26;;;;;;;;;;;;;;;19.77;33.68;96376.34;10429242;28;1986;-51
2023/02/18 05:34:26;;;;;;;;;;;;;;;19.82;33.73;96373.75;10429682;28;2290;-52
2023/02/18 05:39:26;;;;;;;;;;;;;;;19.90;33.70;96376.72;10430303;28;2607;-50
2023/02/18 05:44:29;;;;;;;;;;;;;;;19.96;33.67;96369.63;10424329;28;2003;-53
2023/02/18 05:49:30;;;;;;;;;;;;;;;20.06;33.47;96372.31;10430550;28;2537;-53
2023/02/18 05:54:30;;;;;;;;;;;;;;;20.11;33.52;96367.09;10437729;28;2320;-51
2023/02/18 05:59:31;;;;;;;;;;;;;;;20.16;33.44;96375.00;10439884;28;1960;-52
2023/02/18 06:04:31;;;;;;;;;;;;;;;20.20;33.25;96366.38;10440047;28;2309;-53
2023/02/18 06:09:31;;;;;;;;;;;;;;;20.26;33.16;96377.72;10442926;28;2552;-51
2023/02/18 06:14:31;;;;;;;;;;;;;;;20.31;33.16;96375.09;10425267;28;2610;-48
2023/02/18 06:19:32;;;;;;;;;;;;;;;20.36;33.21;96387.50;10437805;28;2698;-50
2023/02/18 06:24:32;;;;;;;;;;;;;;;20.41;32.94;96393.59;10420887;28;2311;-54
2023/02/18 06:29:34;;;;;;;;;;;;;;;20.43;33.11;96395.94;10428983;28;2550;-51
2023/02/18 06:34:34;;;;;;;;;;;;;;;20.47;33.07;96403.09;10431220;28;1898;-52
2023/02/18 06:39:35;;;;;;;;;;;;;;;20.51;32.78;96395.47;10426037;28;2537;-52
2023/02/18 06:44:35;;;;;;;;;;;;;;;20.53;33.03;96402.06;10426803;28;2859;-54
2023/02/18 06:49:36;;;;;;;;;;;;;;;20.55;33.00;96394.69;10439304;28;2107;-50
2023/02/18 06:54:36;;;;;;;;;;;;;;;20.58;32.86;96383.66;10435722;28;2102;-53
2023/02/18 06:59:36;;;;;;;;;;;;;;;20.60;32.78;96378.13;10434846;28;2601;-51
2023/02/18 07:04:36;;;;;;;;;;;;;;;20.60;32.82;96383.38;10425637;28;2881;-49
2023/02/18 07:09:37;;;;;;;;;;;;;;;20.64;32.96;96382.63;10424270;28;2957;-54
2023/02/18 07:14:37;;;;;;;;;;;;;;;20.64;32.99;96372.09;10442287;28;2591;-48
2023/02/18 07:19:37;;;;;;;;;;;;;;;20.68;32.73;96383.69;10426174;28;2613;-50
2023/02/18 07:24:37;;;;;;;;;;;;;;;20.70;32.69;96381.59;10423786;28;2602;-49
2023/02/18 07:29:38;;;;;;;;;;;;;;;20.72;32.85;96392.66;10431706;28;2873;-51
2023/02/18 07:34:38;;;;;;;;;;;;;;;20.71;32.52;96383.16;10425853;28;2846;-53
2023/02/18 07:39:38;;;;;;;;;;;;;;;20.76;32.43;96380.53;10420650;28;2542;-51
2023/02/18 07:44:39;;;;;;;;;;;;;;;20.77;32.65;96373.44;10424579;28;2123;-53
2023/02/18 07:49:39;;;;;;;;;;;;;;;20.77;32.41;96368.94;10422869;28;2170;-49
2023/02/18 07:54:40;;;;;;;;;;;;;;;20.78;32.57;96381.09;10430648;28;2897;-49
2023/02/18 07:59:40;;;;;;;;;;;;;;;20.79;32.54;96374.75;10426959;28;2162;-49
2023/02/18 08:04:40;;;;;;;;;;;;;;;20.77;32.35;96366.31;10424282;28;2578;-50
2023/02/18 08:09:40;;;;;;;;;;;;;;;20.69;33.05;96347.59;10414126;28;2570;-52
2023/02/18 08:14:41;;;;;;;;;;;;;;;20.65;33.05;96334.13;10407631;28;2676;-52
2023/02/18 08:19:41;;;;;;;;;;;;;;;20.64;33.28;96343.09;10426991;28;2121;-51
2023/02/18 08:24:41;;;;;;;;;;;;;;;20.65;32.89;96351.81;10420074;28;2640;-53
2023/02/18 08:29:42;;;;;;;;;;;;;;;20.60;33.49;96334.16;10422791;28;2647;-48
2023/02/18 08:34:42;;;;;;;;;;;;;;;20.59;33.70;96321.22;10427440;28;2566;-50
2023/02/18 08:39:42;;;;;;;;;;;;;;;20.57;33.85;96323.31;10424595;28;2612;-49
2023/02/18 08:44:42;;;;;;;;;;;;;;;20.55;33.90;96310.41;10428898;28;2163;-54
2023/02/18 08:49:43;;;;;;;;;;;;;;;20.55;33.67;96299.06;10421495;28;2166;-53
2023/02/18 08:54:43;;;;;;;;;;;;;;;20.52;34.38;96303.03;10425679;28;2596;-53
2023/02/18 08:59:43;;;;;;;;;;;;;;;20.49;34.58;96300.91;10425493;28;2829;-51
2023/02/18 09:04:44;;;;;;;;;;;;;;;20.48;34.40;96303.81;10422421;28;2086;-54
2023/02/18 09:09:44;;;;;;;;;;;;;;;20.43;34.77;96312.47;10423928;28;2571;-51
2023/02/18 09:14:46;;;;;;;;;;;;;;;20.42;34.94;96310.91;10424690;28;2673;-49
2023/02/18 09:19:47;;;;;;;;;;;;;;;20.40;34.61;96310.38;10426737;28;2993;-53
2023/02/18 09:24:47;;;;;;;;;;;;;;;20.39;34.69;96310.63;10427330;28;2209;-53
2023/02/18 09:29:48;;;;;;;;;;;;;;;20.37;34.82;96313.53;10429233;28;2682;-50
2023/02/18 09:34:48;;;;;;;;;;;;;;;20.33;34.69;96315.09;10422546;28;2353;-49
2023/02/18 09:39:49;;;;;;;;;;;;;;;20.33;35.05;96306.38;10423579;28;2598;-52
2023/02/18 09:44:53;;;;;;;;;;;;;;;20.30;35.02;96281.38;10429868;28;2207;-53
2023/02/18 09:49:55;;;;;;;;;;;;;;;20.32;35.21;96287.16;10430215;28;2829;-51
2023/02/18 09:54:55;;;;;;;;;;;;;;;20.29;34.98;96282.44;10436811;28;2084;-51
2023/02/18 10:00:00;;;;;;;;;;;;;;;20.30;35.34;96278.72;10418978;28;2797;-51
2023/02/18 10:05:00;;;;;;;;;;;;;;;20.28;35.10;96272.94;10427645;28;2662;-51
2023/02/18 10:10:01;;;;;;;;;;;;;;;20.26;34.59;96261.88;10407420;28;2619;-50
2023/02/18 10:15:02;;;;;;;;;;;;;;;20.17;35.23;96258.91;10424825;28;2127;-50
2023/02/18 10:20:02;;;;;;;;;;;;;;;20.17;35.20;96234.47;10427130;28;2264;-49
2023/02/18 10:25:03;;;;;;;;;;;;;;;20.16;35.17;96236.28;10454884;28;2643;-52
2023/02/18 10:30:42;;;;;;;;;;;;;;;20.15;35.17;96231.28;10466911;28;2080;-49
2023/02/18 10:35:45;;;;;;;;;;;;;;;20.14;35.02;96224.44;10390279;28;2237;-50
2023/02/18 10:40:55;;;;;;;;;;;;;;;20.16;35.44;96217.06;10474956;28;2213;-53
2023/02/18 10:46:04;;;;;;;;;;;;;;;20.16;35.84;96206.53;10468466;28;2572;-52
2023/02/18 10:51:15;;;;;;;;;;;;;;;20.18;36.11;96192.06;10476296;28;2240;-52
2023/02/18 10:56:28;;;;;;;;;;;;;;;20.19;36.07;96179.72;10471155;28;2076;-49
2023/02/18 11:01:30;;;;;;;;;;;;;;;20.18;36.04;96163.13;10474962;28;2857;-49
2023/02/18 11:06:31;;;;;;;;;;;;;;;20.19;35.98;96162.13;10473808;28;2790;-52
2023/02/18 11:11:37;;;;;;;;;;;;;;;20.21;35.93;96140.78;10459021;28;2745;-52
2023/02/18 11:16:52;;;;;;;;;;;;;;;20.22;36.01;96126.56;10470636;28;2155;-52
2023/02/18 11:21:52;;;;;;;;;;;;;;;20.24;36.17;96121.81;10460571;28;2149;-51
2023/02/18 11:26:52;;;;;;;;;;;;;;;20.24;36.18;96137.63;10416708;28;2147;-49
2023/02/18 11:31:53;;;;;;;;;;;;;;;20.23;36.16;96126.31;10422061;28;2888;-51
2023/02/18 11:36:54;;;;;;;;;;;;;;;20.23;36.24;96133.41;10430658;28;2899;-52
2023/02/18 11:41:56;;;;;;;;;;;;;;;20.23;36.00;96128.94;10428647;28;3060;-50
2023/02/18 11:46:59;;;;;;;;;;;;;;;20.21;36.06;96125.78;10434442;28;2228;-50
2023/02/18 11:52:19;;;;;;;;;;;;;;;20.20;36.12;96115.50;10419717;28;2713;-48
2023/02/18 11:57:19;;;;;;;;;;;;;;;20.21;36.11;96110.00;10428631;28;2646;-49
2023/02/18 12:02:25;;;;;;;;;;;;;;;20.18;36.06;96099.16;10421776;28;2582;-48
2023/02/18 12:07:26;;;;;;;;;;;;;;;20.20;36.36;96104.97;10426271;28;2763;-51
2023/02/18 12:12:58;;;;;;;;;;;;;;;20.17;36.34;96098.34;10411350;28;2177;-50
2023/02/18 12:18:15;;;;;;;;;;;;;;;20.15;36.71;96091.78;10350710;28;2905;-48
2023/02/18 12:23:18;;;;;;;;;;;;;;;20.14;37.29;96082.31;10400685;28;2700;-51
2023/02/18 12:28:27;;;;;;;;;;;;;;;20.17;37.16;96073.91;10439790;28;2651;-47
2023/02/18 12:33:34;;;;;;;;;;;;;;;20.16;37.40;96053.88;10432108;28;2196;-50
2023/02/18 12:38:43;;;;;;;;;;;;;;;20.15;37.19;96044.41;10444889;28;2889;-47
2023/02/18 12:44:00;;;;;;;;;;;;;;;20.14;37.16;96050.72;10436535;28;3034;-47
2023/02/18 12:49:13;;;;;;;;;;;;;;;20.13;36.94;96054.44;10405599;28;2628;-47
2023/02/18 12:54:18;;;;;;;;;;;;;;;20.07;37.13;96053.63;10419029;28;2882;-50
2023/02/18 12:59:18;;;;;;;;;;;;;;;20.10;38.00;96047.03;10396918;28;2856;-50
2023/02/18 13:04:18;;;;;;;;;;;;;;;20.12;37.76;96051.00;10416676;28;2941;-49
2023/02/18 13:09:21;;;;;;;;;;;;;;;20.12;38.04;96042.31;10422562;28;2125;-49
2023/02/18 13:14:28;;;;;;;;;;;;;;;20.16;37.94;96028.34;10407942;28;2904;-48
2023/02/18 13:19:32;;;;;;;;;;;;;;;20.20;37.89;96044.44;10401771;28;2891;-50
2023/02/18 13:24:36;;;;;;;;;;;;;;;20.22;37.49;96039.69;10418530;28;2100;-51
2023/02/18 13:29:39;;;;;;;;;;;;;;;20.29;37.26;96040.22;10415586;28;2915;-48
2023/02/18 13:34:58;;;;;;;;;;;;;;;20.32;37.39;96039.69;10403396;28;2926;-52
2023/02/18 13:39:58;;;;;;;;;;;;;;;20.36;37.08;96038.09;10427491;28;2897;-47
2023/02/18 13:44:59;;;;;;;;;;;;;;;20.36;36.93;96011.78;10421496;28;2942;-51
2023/02/18 13:50:12;;;;;;;;;;;;;;;20.35;36.78;96020.75;10421573;28;2912;-49
2023/02/18 13:55:19;;;;;;;;;;;;;;;20.32;37.06;96031.03;10413096;28;2912;-50
2023/02/18 14:00:21;;;;;;;;;;;;;;;20.25;36.87;96024.19;10405201;28;2662;-48
2023/02/18 14:05:21;;;;;;;;;;;;;;;20.19;36.96;96008.63;10406887;28;2133;-50
2023/02/18 14:10:26;;;;;;;;;;;;;;;20.16;36.83;96006.50;10419938;28;2863;-48
2023/02/18 14:15:26;;;;;;;;;;;;;;;20.15;37.07;96003.06;10420941;28;2095;-52
2023/02/18 14:20:31;;;;;;;;;;;;;;;20.15;37.32;95994.41;10432176;28;2884;-49
2023/02/18 14:25:35;;;;;;;;;;;;;;;20.11;37.53;95999.41;10429379;28;2252;-50
2023/02/18 14:30:39;;;;;;;;;;;;;;;20.07;37.28;96006.25;10424538;28;2646;-52
2023/02/18 14:35:46;;;;;;;;;;;;;;;20.08;37.34;96014.94;10421126;28;2563;-49
2023/02/18 14:40:49;;;;;;;;;;;;;;;20.08;37.51;95999.16;10428106;28;2160;-50
2023/02/18 14:45:55;;;;;;;;;;;;;;;20.05;37.28;96005.72;10428958;28;2200;-51
2023/02/18 14:50:56;;;;;;;;;;;;;;;20.06;37.31;96011.78;10442488;28;3068;-51
2023/02/18 14:56:01;;;;;;;;;;;;;;;20.08;37.20;95999.16;10443875;28;2822;-47
2023/02/18 15:01:20;;;;;;;;;;;;;;;20.09;37.03;95995.47;10440308;28;2147;-49
2023/02/18 15:06:21;;;;;;;;;;;;;;;20.13;37.01;96001.78;10431624;28;2924;-52
2023/02/18 15:11:22;;;;;;;;;;;;;;;20.15;36.85;96004.94;10420106;28;2341;-50
2023/02/18 15:16:25;;;;;;;;;;;;;;;20.18;36.82;96014.94;10411136;28;2841;-48
2023/02/18 15:21:34;;;;;;;;;;;;;;;20.22;36.94;96010.75;10424499;28;2183;-48
2023/02/18 15:26:36;;;;;;;;;;;;;;;20.25;36.68;96011.03;10408771;28;2895;-51
2023/02/18 15:31:37;;;;;;;;;;;;;;;20.29;37.09;96016.53;10424552;28;2145;-49
2023/02/18 15:36:37;;;;;;;;;;;;;;;20.35;36.85;96018.09;10426356;28;2609;-48
2023/02/18 15:41:37;;;;;;;;;;;;;;;20.37;37.00;96007.31;10431860;28;2893;-47
2023/02/18 15:46:38;;;;;;;;;;;;;;;20.43;36.84;96014.94;10430171;28;2597;-50
2023/02/18 15:51:38;;;;;;;;;;;;;;;20.48;36.46;96014.94;10428605;28;2316;-50
2023/02/18 15:56:39;;;;;;;;;;;;;;;20.52;36.77;96010.72;10426714;28;2988;-51
2023/02/18 16:01:39;;;;;;;;;;;;;;;20.57;36.82;96017.78;10416108;28;2843;-49
2023/02/18 16:06:43;;;;;;;;;;;;;;;20.63;36.50;96016.75;10429798;28;2563;-52
2023/02/18 16:11:50;;;;;;;;;;;;;;;20.65;36.49;96020.69;10435249;28;2526;-49
2023/02/18 16:17:03;;;;;;;;;;;;;;;20.68;36.54;96022.78;10414850;28;2620;-49
2023/02/18 16:22:05;;;;;;;;;;;;;;;20.72;36.59;96026.47;10424000;28;2961;-48
2023/02/18 16:27:05;;;;;;;;;;;;;;;20.74;36.36;96018.28;10425927;28;2606;-48
2023/02/18 16:32:05;;;;;;;;;;;;;;;20.75;36.33;96015.38;10414365;28;2222;-50
2023/02/18 16:42:25;;;;;;;;;;;;;;;20.79;36.01;96020.94;10423215;28;2949;-48
2023/02/18 16:47:25;;;;;;;;;;;;;;;20.77;36.33;96018.53;10426685;28;2207;-50
2023/02/18 16:52:25;;;;;;;;;;;;;;;20.79;36.62;96013.03;10409886;28;2849;-47
2023/02/18 16:57:26;;;;;;;;;;;;;;;20.77;36.32;96021.16;10424381;28;2142;-48
2023/02/18 17:02:26;;;;;;;;;;;;;;;20.78;36.65;96025.41;10426520;28;2184;-46
2023/02/18 17:07:26;;;;;;;;;;;;;;;20.78;36.68;96020.13;10418926;28;2072;-47
2023/02/18 17:12:27;;;;;;;;;;;;;;;20.80;36.49;96044.38;10421726;28;2107;-49
2023/02/18 17:17:27;;;;;;;;;;;;;;;20.81;37.03;96042.53;10427712;28;2153;-51
2023/02/18 17:22:27;;;;;;;;;;;;;;;20.82;36.48;96054.63;10424125;28;2163;-52
2023/02/18 17:27:27;;;;;;;;;;;;;;;20.85;36.42;96062.81;10425471;28;2173;-50
2023/02/18 17:32:28;;;;;;;;;;;;;;;20.86;36.18;96067.00;10426402;28;2550;-52
2023/02/18 17:37:28;;;;;;;;;;;;;;;20.87;36.32;96070.44;10434710;28;2184;-52
2023/02/18 17:42:30;;;;;;;;;;;;;;;20.86;36.33;96067.00;10419956;28;2944;-54
2023/02/18 17:47:30;;;;;;;;;;;;;;;20.86;36.22;96077.53;10432317;28;2531;-53
2023/02/18 17:52:31;;;;;;;;;;;;;;;20.85;36.49;96075.97;10432162;28;2347;-48
2023/02/18 17:57:31;;;;;;;;;;;;;;;20.80;37.07;96094.41;10430551;28;2961;-50
2023/02/18 18:02:31;;;;;;;;;;;;;;;20.78;36.73;96086.00;10419707;28;2586;-51
2023/02/18 18:07:31;;;;;;;;;;;;;;;20.76;37.84;96089.94;10430937;28;3345;-48
2023/02/18 18:12:32;;;;;;;;;;;;;;;20.83;37.55;96096.53;10424929;28;2198;-50
2023/02/18 18:17:32;;;;;;;;;;;;;;;20.91;37.21;96093.34;10419031;28;2101;-47
2023/02/18 18:22:32;;;;;;;;;;;;;;;20.98;36.82;96083.31;10418554;28;2893;-53
2023/02/18 18:27:32;;;;;;;;;;;;;;;20.93;36.74;96085.97;10424307;28;2869;-52
2023/02/18 18:32:33;;;;;;;;;;;;;;;20.86;36.83;96087.28;10419519;28;1691;-53
2023/02/18 18:37:33;;;;;;;;;;;;;;;20.82;37.02;96081.78;10420618;28;2746;-52
2023/02/18 18:42:33;;;;;;;;;;;;;;;20.77;36.80;96081.75;10428914;28;2100;-49
2023/02/18 18:47:34;;;;;;;;;;;;;;;20.74;36.89;96070.97;10434490;28;2075;-49
2023/02/18 18:52:34;;;;;;;;;;;;;;;20.70;37.11;96075.19;10423583;28;2185;-48
2023/02/18 18:57:34;;;;;;;;;;;;;;;20.66;37.15;96079.44;10434201;28;2637;-49
2023/02/18 19:02:34;;;;;;;;;;;;;;;20.62;37.54;96068.63;10430871;28;2305;-51
2023/02/18 19:07:35;;;;;;;;;;;;;;;20.57;37.10;96071.25;10432795;28;2901;-49
2023/02/18 19:12:35;;;;;;;;;;;;;;;20.57;36.82;96079.16;10437804;28;2563;-53
2023/02/18 19:17:35;;;;;;;;;;;;;;;20.54;37.55;96074.44;10439698;28;2884;-49
2023/02/18 19:22:36;;;;;;;;;;;;;;;20.56;37.79;96097.88;10436236;28;2149;-51
2023/02/18 19:27:39;;;;;;;;;;;;;;;20.54;37.37;96092.88;10428316;28;2852;-50
2023/02/18 19:32:39;;;;;;;;;;;;;;;20.54;37.29;96095.50;10428828;28;2168;-54
2023/02/18 19:37:40;;;;;;;;;;;;;;;20.53;37.11;96112.34;10441793;28;2871;-51
2023/02/18 19:42:40;;;;;;;;;;;;;;;20.53;37.09;96122.88;10414019;28;2562;-48
2023/02/18 19:47:40;;;;;;;;;;;;;;;20.56;37.04;96117.09;10432343;28;2606;-52
2023/02/18 19:52:40;;;;;;;;;;;;;;;20.54;37.17;96119.22;10422745;28;2156;-51
2023/02/18 19:57:41;;;;;;;;;;;;;;;20.56;36.90;96126.84;10439394;28;2143;-52
2023/02/18 20:02:41;;;;;;;;;;;;;;;20.56;36.89;96132.91;10440141;28;3036;-49
2023/02/18 20:07:41;;;;;;;;;;;;;;;20.58;37.01;96141.34;10436278;28;2195;-49
2023/02/18 20:12:42;;;;;;;;;;;;;;;20.61;36.57;96153.19;10441176;28;2124;-49
2023/02/18 20:17:42;;;;;;;;;;;;;;;20.63;36.46;96148.47;10435197;28;2577;-49
2023/02/18 20:22:42;;;;;;;;;;;;;;;20.62;36.65;96147.66;10434590;28;2581;-51
2023/02/18 20:27:43;;;;;;;;;;;;;;;20.65;36.58;96146.34;10440861;28;2995;-50
2023/02/18 20:32:43;;;;;;;;;;;;;;;20.22;33.96;96152.88;10440174;28;2810;-50
2023/02/18 20:37:43;;;;;;;;;;;;;;;19.76;33.75;96156.44;10439448;28;2121;-48
2023/02/18 20:42:44;;;;;;;;;;;;;;;19.33;33.83;96145.22;10434931;28;2160;-48
2023/02/18 20:47:44;;;;;;;;;;;;;;;19.21;34.10;96146.44;10434052;28;2582;-48
2023/02/18 20:52:44;;;;;;;;;;;;;;;19.44;34.25;96141.59;10436979;28;2100;-49
2023/02/18 20:57:45;;;;;;;;;;;;;;;19.60;34.76;96150.31;10435872;28;3214;-54
2023/02/18 21:02:45;;;;;;;;;;;;;;;19.69;34.92;96143.53;10425940;28;2937;-48
2023/02/18 21:07:45;;;;;;;;;;;;;;;19.75;34.84;96142.50;10440284;28;2845;-50
2023/02/18 21:12:45;;;;;;;;;;;;;;;19.82;35.02;96137.78;10430539;28;2982;-48
2023/02/18 21:17:46;;;;;;;;;;;;;;;19.87;34.97;96147.50;10427946;28;2568;-49
2023/02/18 21:22:46;;;;;;;;;;;;;;;19.92;35.06;96142.28;10433484;28;2929;-48
2023/02/18 21:27:46;;;;;;;;;;;;;;;19.93;35.39;96138.56;10420289;28;2154;-48
2023/02/18 21:32:46;;;;;;;;;;;;;;;19.94;35.24;96132.28;10420613;28;2274;-48
2023/02/18 21:37:47;;;;;;;;;;;;;;;19.96;35.67;96135.44;10428508;28;2583;-49
2023/02/18 21:42:47;;;;;;;;;;;;;;;19.96;35.59;96148.59;10427888;28;2900;-53
2023/02/18 21:47:47;;;;;;;;;;;;;;;19.97;35.91;96140.44;10423646;28;3019;-49
2023/02/18 21:52:48;;;;;;;;;;;;;;;19.99;35.88;96150.72;10422821;28;2856;-48
2023/02/18 21:57:48;;;;;;;;;;;;;;;19.96;35.62;96136.25;10424184;28;2144;-45
2023/02/18 22:02:48;;;;;;;;;;;;;;;19.97;35.87;96139.66;10428455;28;2185;-45
2023/02/18 22:07:48;;;;;;;;;;;;;;;19.95;35.99;96136.47;10413547;28;2635;-47
2023/02/18 22:12:49;;;;;;;;;;;;;;;19.93;35.78;96139.38;10424146;28;2602;-46
2023/02/18 22:17:49;;;;;;;;;;;;;;;19.91;35.97;96138.84;10420973;28;2617;-47
2023/02/18 22:22:49;;;;;;;;;;;;;;;19.88;35.70;96142.00;10433805;28;2135;-48
2023/02/18 22:27:50;;;;;;;;;;;;;;;19.85;35.87;96132.00;10446412;28;2908;-46
2023/02/18 22:32:50;;;;;;;;;;;;;;;19.85;35.97;96136.47;10412441;28;2897;-47
2023/02/18 22:37:50;;;;;;;;;;;;;;;19.83;36.04;96139.34;10406310;28;2916;-50
2023/02/18 22:42:50;;;;;;;;;;;;;;;19.81;35.80;96130.13;10430583;28;2199;-47
2023/02/18 22:47:51;;;;;;;;;;;;;;;19.81;36.06;96138.03;10422553;28;2147;-51
2023/02/18 22:52:52;;;;;;;;;;;;;;;19.78;36.03;96125.41;10433379;28;2167;-50
2023/02/18 22:57:52;;;;;;;;;;;;;;;19.76;35.83;96132.78;10421181;28;2548;-48
2023/02/18 23:02:53;;;;;;;;;;;;;;;19.74;36.07;96130.38;10422669;28;2894;-53
2023/02/18 23:07:53;;;;;;;;;;;;;;;19.74;36.14;96132.25;10429046;28;2182;-49
2023/02/18 23:12:54;;;;;;;;;;;;;;;19.73;36.21;96128.00;10434948;28;3186;-45
2023/02/18 23:17:54;;;;;;;;;;;;;;;19.74;36.35;96119.09;10435254;28;2622;-47
2023/02/18 23:22:54;;;;;;;;;;;;;;;19.71;36.43;96120.38;10438654;28;2861;-46
2023/02/18 23:27:54;;;;;;;;;;;;;;;19.69;36.38;96117.22;10435050;28;2190;-47
2023/02/18 23:32:55;;;;;;;;;;;;;;;19.68;36.32;96120.88;10406802;28;3402;-46
2023/02/18 23:38:04;;;;;;;;;;;;;;;19.69;36.30;96111.16;10417160;28;2284;-48
2023/02/18 23:43:04;;;;;;;;;;;;;;;19.67;36.47;96113.28;10424378;28;2896;-46
2023/02/18 23:48:05;;;;;;;;;;;;;;;19.65;36.57;96099.59;10416253;28;2835;-46
2023/02/18 23:53:05;;;;;;;;;;;;;;;19.66;36.48;96093.28;10430763;28;2893;-46
2023/02/18 23:58:05;;;;;;;;;;;;;;;19.65;36.40;96086.44;10435938;28;2968;-45
